Terminal Aerodrome Forecast
Issued by NWS

Home | Current Version | Previous Version | Text Only | Print | Product List | Glossary On
Versions: 1 2 3 4 5 6 7 8 9 10 11 12 13 14 15 16 17 18 19 20 21 22 23
000
FTUS41 KBGM 211100
TAFELM
TAF
KELM 211129Z 2112/2212 VRB03KT P6SM -SHRA SCT025 OVC050
      TEMPO 2112/2116 5SM -SHRA BR BKN025 OVC035
     FM211600 VRB03KT 6SM -SHRA OVC025
      TEMPO 2116/2120 4SM -SHRA BR OVC015
     FM212000 02004KT 4SM -SHRA OVC025=

USA.gov is the U.S. government's official web portal to all federal, state and local government web resources and services.